<?xml version="1.0" encoding="UTF-8" standalone="no" ?>
<gpx xmlns="http://www.topografix.com/GPX/1/1" xmlns:xsi="http://www.w3.org/2001/XMLSchema-instance" xsi:schemaLocation="http://www.topografix.com/GPX/1/1 http://www.topografix.com/GPX/1/1/gpx.xsd" version="1.1" creator="VisuGPX - https://www.visugpx.com">
  <metadata>
    <name>La Montagnette (2235 m)</name>
    <desc><![CDATA[Départ au dessus d\\\'Artigues, au niveau de la D918
Remontée du vallon d\\\'Arizes
Lac d\\\'Arizes
Col d\\\'Arizes (2132m) ou accès direct à la Montagnette]]></desc>
  </metadata>
  <wpt lat="42.92479" lon="0.19155">
    <ele>1424.7</ele>
    <name><![CDATA[Cabane]]></name>
    <desc><![CDATA[Cabane]]></desc>
    <cmt><![CDATA[Cabane]]></cmt>
  </wpt>
  <wpt lat="42.93689" lon="0.16289">
    <ele>1740.7</ele>
    <name><![CDATA[Cabane.]]></name>
    <desc><![CDATA[Cabane]]></desc>
    <cmt><![CDATA[Cabane]]></cmt>
  </wpt>
  <wpt lat="42.9476" lon="0.14778">
    <ele>2178.9</ele>
    <name><![CDATA[Col D'Aouet]]></name>
    <desc><![CDATA[Col D'Aouet]]></desc>
    <cmt><![CDATA[Col D'Aouet]]></cmt>
  </wpt>
  <wpt lat="42.95182" lon="0.15827">
    <ele>2129.6</ele>
    <name><![CDATA[Col D'Arizes]]></name>
    <desc><![CDATA[Col D'Arizes 2160m]]></desc>
    <cmt><![CDATA[Col D'Arizes 2160m]]></cmt>
  </wpt>
  <wpt lat="42.94641" lon="0.17286">
    <ele>2153.7</ele>
    <name><![CDATA[Col de Ballonq]]></name>
    <desc><![CDATA[Col de Ballonque]]></desc>
    <cmt><![CDATA[Col de Ballonque]]></cmt>
  </wpt>
  <wpt lat="42.92701" lon="0.19851">
    <ele>1273.4</ele>
    <name><![CDATA[depart-D918]]></name>
    <desc><![CDATA[départ-D918 1256m]]></desc>
    <cmt><![CDATA[départ-D918 1256m]]></cmt>
  </wpt>
  <wpt lat="42.95292" lon="0.16309">
    <ele>2226.9</ele>
    <name><![CDATA[La Montagnette]]></name>
    <desc><![CDATA[La Montagnette 2235m]]></desc>
    <cmt><![CDATA[La Montagnette 2235m]]></cmt>
  </wpt>
  <wpt lat="42.94732" lon="0.15791">
    <ele>2020.2</ele>
    <name><![CDATA[Lac D'Arizes]]></name>
    <desc><![CDATA[Lac D'Arizes 2020m]]></desc>
    <cmt><![CDATA[Lac D'Arizes 2020m]]></cmt>
  </wpt>
  <wpt lat="42.9503" lon="0.17016">
    <ele>2272.1</ele>
    <name><![CDATA[Pic de Ballonque]]></name>
    <desc><![CDATA[Pic de Ballonque 2285m]]></desc>
    <cmt><![CDATA[Pic de Ballonque 2285m]]></cmt>
  </wpt>
  <trk>
    <name><![CDATA[la-montagnette-2235m-Mariano]]></name>
    <trkseg>
      <trkpt lat="42.92701" lon="0.19851">
        <ele>1255.6191406</ele>
        <time>2010-03-06T08:07:53Z</time>
      </trkpt>
      <trkpt lat="42.92705" lon="0.19737">
        <ele>1296.9558105</ele>
        <time>2010-03-06T08:16:58Z</time>
      </trkpt>
      <trkpt lat="42.9264" lon="0.19521">
        <ele>1357.9997559</ele>
        <time>2010-03-06T08:22:36Z</time>
      </trkpt>
      <trkpt lat="42.92636" lon="0.19503">
        <ele>1360.8835449</ele>
        <time>2010-03-06T08:23:05Z</time>
      </trkpt>
      <trkpt lat="42.92622" lon="0.19376">
        <ele>1380.1098633</ele>
        <time>2010-03-06T08:25:06Z</time>
      </trkpt>
      <trkpt lat="42.92614" lon="0.19357">
        <ele>1382.0324707</ele>
        <time>2010-03-06T08:25:26Z</time>
      </trkpt>
      <trkpt lat="42.9261" lon="0.1935">
        <ele>1385.3969727</ele>
        <time>2010-03-06T08:25:35Z</time>
      </trkpt>
      <trkpt lat="42.92602" lon="0.19347">
        <ele>1387.800293</ele>
        <time>2010-03-06T08:25:51Z</time>
      </trkpt>
      <trkpt lat="42.9257" lon="0.19337">
        <ele>1395.4909668</ele>
        <time>2010-03-06T08:26:34Z</time>
      </trkpt>
      <trkpt lat="42.92559" lon="0.19329">
        <ele>1397.4135742</ele>
        <time>2010-03-06T08:26:53Z</time>
      </trkpt>
      <trkpt lat="42.92549" lon="0.19305">
        <ele>1405.104248</ele>
        <time>2010-03-06T08:27:36Z</time>
      </trkpt>
      <trkpt lat="42.92538" lon="0.1928">
        <ele>1407.5075684</ele>
        <time>2010-03-06T08:28:16Z</time>
      </trkpt>
      <trkpt lat="42.92541" lon="0.19263">
        <ele>1408.9494629</ele>
        <time>2010-03-06T08:28:32Z</time>
      </trkpt>
      <trkpt lat="42.92544" lon="0.19242">
        <ele>1410.8720703</ele>
        <time>2010-03-06T08:28:47Z</time>
      </trkpt>
      <trkpt lat="42.92554" lon="0.19186">
        <ele>1415.6787109</ele>
        <time>2010-03-06T08:29:26Z</time>
      </trkpt>
      <trkpt lat="42.92578" lon="0.19097">
        <ele>1424.3305664</ele>
        <time>2010-03-06T08:30:44Z</time>
      </trkpt>
      <trkpt lat="42.92583" lon="0.19075">
        <ele>1425.7724609</ele>
        <time>2010-03-06T08:31:00Z</time>
      </trkpt>
      <trkpt lat="42.9261" lon="0.18945">
        <ele>1445.4794922</ele>
        <time>2010-03-06T08:32:54Z</time>
      </trkpt>
      <trkpt lat="42.92611" lon="0.18941">
        <ele>1445.4794922</ele>
        <time>2010-03-06T08:33:02Z</time>
      </trkpt>
      <trkpt lat="42.92606" lon="0.18881">
        <ele>1452.2087402</ele>
        <time>2010-03-06T08:35:38Z</time>
      </trkpt>
      <trkpt lat="42.92599" lon="0.18864">
        <ele>1455.5734863</ele>
        <time>2010-03-06T08:35:54Z</time>
      </trkpt>
      <trkpt lat="42.92593" lon="0.18847">
        <ele>1458.9379883</ele>
        <time>2010-03-06T08:36:11Z</time>
      </trkpt>
      <trkpt lat="42.92593" lon="0.18822">
        <ele>1462.7832031</ele>
        <time>2010-03-06T08:36:46Z</time>
      </trkpt>
      <trkpt lat="42.92615" lon="0.18703">
        <ele>1481.5288086</ele>
        <time>2010-03-06T08:39:06Z</time>
      </trkpt>
      <trkpt lat="42.92625" lon="0.18619">
        <ele>1495.9487305</ele>
        <time>2010-03-06T08:40:44Z</time>
      </trkpt>
      <trkpt lat="42.92657" lon="0.18549">
        <ele>1510.3684082</ele>
        <time>2010-03-06T08:42:08Z</time>
      </trkpt>
      <trkpt lat="42.92666" lon="0.18532">
        <ele>1512.2910156</ele>
        <time>2010-03-06T08:42:29Z</time>
      </trkpt>
      <trkpt lat="42.92675" lon="0.18514">
        <ele>1514.213623</ele>
        <time>2010-03-06T08:42:49Z</time>
      </trkpt>
      <trkpt lat="42.92686" lon="0.18492">
        <ele>1517.5783691</ele>
        <time>2010-03-06T08:43:11Z</time>
      </trkpt>
      <trkpt lat="42.92693" lon="0.18484">
        <ele>1519.5012207</ele>
        <time>2010-03-06T08:43:29Z</time>
      </trkpt>
      <trkpt lat="42.9271" lon="0.18468">
        <ele>1521.423584</ele>
        <time>2010-03-06T08:43:46Z</time>
      </trkpt>
      <trkpt lat="42.92721" lon="0.18459">
        <ele>1524.7883301</ele>
        <time>2010-03-06T08:43:58Z</time>
      </trkpt>
      <trkpt lat="42.92732" lon="0.18451">
        <ele>1526.7109375</ele>
        <time>2010-03-06T08:44:19Z</time>
      </trkpt>
      <trkpt lat="42.92744" lon="0.18445">
        <ele>1526.7109375</ele>
        <time>2010-03-06T08:45:41Z</time>
      </trkpt>
      <trkpt lat="42.92755" lon="0.18436">
        <ele>1529.5947266</ele>
        <time>2010-03-06T08:45:56Z</time>
      </trkpt>
      <trkpt lat="42.92765" lon="0.18423">
        <ele>1532.9594727</ele>
        <time>2010-03-06T08:46:11Z</time>
      </trkpt>
      <trkpt lat="42.92767" lon="0.18421">
        <ele>1532.9594727</ele>
        <time>2010-03-06T08:46:14Z</time>
      </trkpt>
      <trkpt lat="42.92771" lon="0.18415">
        <ele>1533.9208984</ele>
        <time>2010-03-06T08:46:20Z</time>
      </trkpt>
      <trkpt lat="42.92783" lon="0.18403">
        <ele>1536.8046875</ele>
        <time>2010-03-06T08:46:36Z</time>
      </trkpt>
      <trkpt lat="42.92784" lon="0.18401">
        <ele>1537.2854004</ele>
        <time>2010-03-06T08:46:38Z</time>
      </trkpt>
      <trkpt lat="42.92793" lon="0.1838">
        <ele>1539.2080078</ele>
        <time>2010-03-06T08:46:57Z</time>
      </trkpt>
      <trkpt lat="42.92807" lon="0.18311">
        <ele>1547.8598633</ele>
        <time>2010-03-06T08:48:03Z</time>
      </trkpt>
      <trkpt lat="42.92812" lon="0.18293">
        <ele>1549.7827148</ele>
        <time>2010-03-06T08:48:21Z</time>
      </trkpt>
      <trkpt lat="42.92838" lon="0.18237">
        <ele>1555.5505371</ele>
        <time>2010-03-06T08:49:17Z</time>
      </trkpt>
      <trkpt lat="42.92846" lon="0.18222">
        <ele>1557.4731445</ele>
        <time>2010-03-06T08:49:33Z</time>
      </trkpt>
      <trkpt lat="42.92847" lon="0.18221">
        <ele>1557.4731445</ele>
        <time>2010-03-06T08:49:34Z</time>
      </trkpt>
      <trkpt lat="42.92852" lon="0.18209">
        <ele>1556.9924316</ele>
        <time>2010-03-06T08:49:49Z</time>
      </trkpt>
      <trkpt lat="42.92857" lon="0.18195">
        <ele>1559.8762207</ele>
        <time>2010-03-06T08:50:33Z</time>
      </trkpt>
      <trkpt lat="42.92882" lon="0.18162">
        <ele>1560.3569336</ele>
        <time>2010-03-06T08:51:12Z</time>
      </trkpt>
      <trkpt lat="42.92911" lon="0.18131">
        <ele>1558.4343262</ele>
        <time>2010-03-06T08:51:49Z</time>
      </trkpt>
      <trkpt lat="42.92931" lon="0.18111">
        <ele>1561.7990723</ele>
        <time>2010-03-06T08:52:18Z</time>
      </trkpt>
      <trkpt lat="42.92944" lon="0.18088">
        <ele>1560.8376465</ele>
        <time>2010-03-06T08:52:39Z</time>
      </trkpt>
      <trkpt lat="42.92946" lon="0.18086">
        <ele>1560.3569336</ele>
        <time>2010-03-06T08:52:41Z</time>
      </trkpt>
      <trkpt lat="42.92952" lon="0.18078">
        <ele>1560.8376465</ele>
        <time>2010-03-06T08:52:50Z</time>
      </trkpt>
      <trkpt lat="42.92953" lon="0.18077">
        <ele>1562.279541</ele>
        <time>2010-03-06T08:52:52Z</time>
      </trkpt>
      <trkpt lat="42.92955" lon="0.18074">
        <ele>1563.2409668</ele>
        <time>2010-03-06T08:52:55Z</time>
      </trkpt>
      <trkpt lat="42.92962" lon="0.18059">
        <ele>1562.7602539</ele>
        <time>2010-03-06T08:54:07Z</time>
      </trkpt>
      <trkpt lat="42.92988" lon="0.18012">
        <ele>1567.0864258</ele>
        <time>2010-03-06T08:55:10Z</time>
      </trkpt>
      <trkpt lat="42.92996" lon="0.17994">
        <ele>1568.0476074</ele>
        <time>2010-03-06T08:55:27Z</time>
      </trkpt>
      <trkpt lat="42.93066" lon="0.17831">
        <ele>1581.0256348</ele>
        <time>2010-03-06T08:58:19Z</time>
      </trkpt>
      <trkpt lat="42.93068" lon="0.17822">
        <ele>1581.5061035</ele>
        <time>2010-03-06T08:58:27Z</time>
      </trkpt>
      <trkpt lat="42.93079" lon="0.17775">
        <ele>1585.3513184</ele>
        <time>2010-03-06T08:59:15Z</time>
      </trkpt>
      <trkpt lat="42.93083" lon="0.17763">
        <ele>1586.7932129</ele>
        <time>2010-03-06T08:59:32Z</time>
      </trkpt>
      <trkpt lat="42.9309" lon="0.17741">
        <ele>1588.7160645</ele>
        <time>2010-03-06T08:59:51Z</time>
      </trkpt>
      <trkpt lat="42.93093" lon="0.17736">
        <ele>1589.1965332</ele>
        <time>2010-03-06T08:59:56Z</time>
      </trkpt>
      <trkpt lat="42.931" lon="0.17718">
        <ele>1589.6772461</ele>
        <time>2010-03-06T09:00:14Z</time>
      </trkpt>
      <trkpt lat="42.93107" lon="0.17705">
        <ele>1591.1191406</ele>
        <time>2010-03-06T09:00:26Z</time>
      </trkpt>
      <trkpt lat="42.93137" lon="0.17638">
        <ele>1594.0031738</ele>
        <time>2010-03-06T09:01:30Z</time>
      </trkpt>
      <trkpt lat="42.93139" lon="0.17634">
        <ele>1593.5224609</ele>
        <time>2010-03-06T09:01:34Z</time>
      </trkpt>
      <trkpt lat="42.93162" lon="0.17561">
        <ele>1600.2519531</ele>
        <time>2010-03-06T09:03:03Z</time>
      </trkpt>
      <trkpt lat="42.93169" lon="0.17545">
        <ele>1601.2131348</ele>
        <time>2010-03-06T09:03:18Z</time>
      </trkpt>
      <trkpt lat="42.93176" lon="0.17538">
        <ele>1598.8098145</ele>
        <time>2010-03-06T09:03:37Z</time>
      </trkpt>
      <trkpt lat="42.93177" lon="0.17537">
        <ele>1597.8486328</ele>
        <time>2010-03-06T09:03:40Z</time>
      </trkpt>
      <trkpt lat="42.93177" lon="0.17536">
        <ele>1601.2131348</ele>
        <time>2010-03-06T09:03:42Z</time>
      </trkpt>
      <trkpt lat="42.93178" lon="0.17535">
        <ele>1599.7712402</ele>
        <time>2010-03-06T09:03:43Z</time>
      </trkpt>
      <trkpt lat="42.93182" lon="0.17534">
        <ele>1600.2519531</ele>
        <time>2010-03-06T09:03:50Z</time>
      </trkpt>
      <trkpt lat="42.9318" lon="0.17503">
        <ele>1603.1357422</ele>
        <time>2010-03-06T09:04:29Z</time>
      </trkpt>
      <trkpt lat="42.93182" lon="0.17486">
        <ele>1598.3291016</ele>
        <time>2010-03-06T09:04:44Z</time>
      </trkpt>
      <trkpt lat="42.93203" lon="0.17362">
        <ele>1607.9423828</ele>
        <time>2010-03-06T09:06:36Z</time>
      </trkpt>
      <trkpt lat="42.93211" lon="0.17343">
        <ele>1609.3842773</ele>
        <time>2010-03-06T09:06:54Z</time>
      </trkpt>
      <trkpt lat="42.93245" lon="0.17226">
        <ele>1613.7102051</ele>
        <time>2010-03-06T09:08:27Z</time>
      </trkpt>
      <trkpt lat="42.9325" lon="0.1721">
        <ele>1615.1523438</ele>
        <time>2010-03-06T09:08:44Z</time>
      </trkpt>
      <trkpt lat="42.93256" lon="0.17196">
        <ele>1618.0361328</ele>
        <time>2010-03-06T09:09:00Z</time>
      </trkpt>
      <trkpt lat="42.9326" lon="0.17179">
        <ele>1619.9587402</ele>
        <time>2010-03-06T09:09:18Z</time>
      </trkpt>
      <trkpt lat="42.93264" lon="0.1716">
        <ele>1620.920166</ele>
        <time>2010-03-06T09:09:37Z</time>
      </trkpt>
      <trkpt lat="42.93275" lon="0.17098">
        <ele>1628.6108398</ele>
        <time>2010-03-06T09:10:37Z</time>
      </trkpt>
      <trkpt lat="42.93277" lon="0.17084">
        <ele>1632.4560547</ele>
        <time>2010-03-06T09:10:51Z</time>
      </trkpt>
      <trkpt lat="42.93277" lon="0.17066">
        <ele>1634.859375</ele>
        <time>2010-03-06T09:11:07Z</time>
      </trkpt>
      <trkpt lat="42.93279" lon="0.17049">
        <ele>1634.859375</ele>
        <time>2010-03-06T09:11:26Z</time>
      </trkpt>
      <trkpt lat="42.9328" lon="0.17035">
        <ele>1638.223877</ele>
        <time>2010-03-06T09:11:42Z</time>
      </trkpt>
      <trkpt lat="42.93278" lon="0.17018">
        <ele>1641.107666</ele>
        <time>2010-03-06T09:12:01Z</time>
      </trkpt>
      <trkpt lat="42.9328" lon="0.16966">
        <ele>1644.4724121</ele>
        <time>2010-03-06T09:13:02Z</time>
      </trkpt>
      <trkpt lat="42.9329" lon="0.16894">
        <ele>1660.8149414</ele>
        <time>2010-03-06T09:14:49Z</time>
      </trkpt>
      <trkpt lat="42.93292" lon="0.16875">
        <ele>1662.2568359</ele>
        <time>2010-03-06T09:15:08Z</time>
      </trkpt>
      <trkpt lat="42.93298" lon="0.1686">
        <ele>1662.7375488</ele>
        <time>2010-03-06T09:15:25Z</time>
      </trkpt>
      <trkpt lat="42.93305" lon="0.16842">
        <ele>1664.1794434</ele>
        <time>2010-03-06T09:15:43Z</time>
      </trkpt>
      <trkpt lat="42.93306" lon="0.16838">
        <ele>1663.2182617</ele>
        <time>2010-03-06T09:15:46Z</time>
      </trkpt>
      <trkpt lat="42.93311" lon="0.16824">
        <ele>1664.1794434</ele>
        <time>2010-03-06T09:16:03Z</time>
      </trkpt>
      <trkpt lat="42.93321" lon="0.16806">
        <ele>1664.6601563</ele>
        <time>2010-03-06T09:16:20Z</time>
      </trkpt>
      <trkpt lat="42.93323" lon="0.16804">
        <ele>1666.1020508</ele>
        <time>2010-03-06T09:16:23Z</time>
      </trkpt>
      <trkpt lat="42.93345" lon="0.16777">
        <ele>1671.3891602</ele>
        <time>2010-03-06T09:17:03Z</time>
      </trkpt>
      <trkpt lat="42.93376" lon="0.1671">
        <ele>1677.6379395</ele>
        <time>2010-03-06T09:18:26Z</time>
      </trkpt>
      <trkpt lat="42.9339" lon="0.16675">
        <ele>1682.9250488</ele>
        <time>2010-03-06T09:19:40Z</time>
      </trkpt>
      <trkpt lat="42.93396" lon="0.16666">
        <ele>1682.9250488</ele>
        <time>2010-03-06T09:19:55Z</time>
      </trkpt>
      <trkpt lat="42.93425" lon="0.1661">
        <ele>1691.0961914</ele>
        <time>2010-03-06T09:21:48Z</time>
      </trkpt>
      <trkpt lat="42.93438" lon="0.16592">
        <ele>1691.0961914</ele>
        <time>2010-03-06T09:22:08Z</time>
      </trkpt>
      <trkpt lat="42.93466" lon="0.16537">
        <ele>1696.8642578</ele>
        <time>2010-03-06T09:23:31Z</time>
      </trkpt>
      <trkpt lat="42.93498" lon="0.16524">
        <ele>1708.4001465</ele>
        <time>2010-03-06T09:24:28Z</time>
      </trkpt>
      <trkpt lat="42.9353" lon="0.16497">
        <ele>1714.1679688</ele>
        <time>2010-03-06T09:25:39Z</time>
      </trkpt>
      <trkpt lat="42.93535" lon="0.16489">
        <ele>1717.5324707</ele>
        <time>2010-03-06T09:25:56Z</time>
      </trkpt>
      <trkpt lat="42.93541" lon="0.16483">
        <ele>1716.5712891</ele>
        <time>2010-03-06T09:26:11Z</time>
      </trkpt>
      <trkpt lat="42.93581" lon="0.16415">
        <ele>1727.1459961</ele>
        <time>2010-03-06T09:27:51Z</time>
      </trkpt>
      <trkpt lat="42.93607" lon="0.16375">
        <ele>1734.8364258</ele>
        <time>2010-03-06T09:29:10Z</time>
      </trkpt>
      <trkpt lat="42.93619" lon="0.16368">
        <ele>1737.239502</ele>
        <time>2010-03-06T09:29:28Z</time>
      </trkpt>
      <trkpt lat="42.93628" lon="0.16356">
        <ele>1738.2009277</ele>
        <time>2010-03-06T09:29:46Z</time>
      </trkpt>
      <trkpt lat="42.93658" lon="0.16331">
        <ele>1742.5270996</ele>
        <time>2010-03-06T09:30:24Z</time>
      </trkpt>
      <trkpt lat="42.9372" lon="0.16306">
        <ele>1752.1398926</ele>
        <time>2010-03-06T09:53:04Z</time>
      </trkpt>
      <trkpt lat="42.93721" lon="0.16306">
        <ele>1755.5046387</ele>
        <time>2010-03-06T09:53:05Z</time>
      </trkpt>
      <trkpt lat="42.93826" lon="0.16264">
        <ele>1778.0957031</ele>
        <time>2010-03-06T10:01:23Z</time>
      </trkpt>
      <trkpt lat="42.93891" lon="0.16221">
        <ele>1792.515625</ele>
        <time>2010-03-06T10:04:02Z</time>
      </trkpt>
      <trkpt lat="42.93896" lon="0.16221">
        <ele>1793.4768066</ele>
        <time>2010-03-06T10:04:10Z</time>
      </trkpt>
      <trkpt lat="42.93901" lon="0.16229">
        <ele>1797.3220215</ele>
        <time>2010-03-06T10:04:18Z</time>
      </trkpt>
      <trkpt lat="42.93912" lon="0.16221">
        <ele>1799.2446289</ele>
        <time>2010-03-06T10:04:38Z</time>
      </trkpt>
      <trkpt lat="42.93926" lon="0.16217">
        <ele>1801.6479492</ele>
        <time>2010-03-06T10:05:04Z</time>
      </trkpt>
      <trkpt lat="42.93941" lon="0.1621">
        <ele>1807.8967285</ele>
        <time>2010-03-06T10:05:26Z</time>
      </trkpt>
      <trkpt lat="42.93953" lon="0.16209">
        <ele>1810.7805176</ele>
        <time>2010-03-06T10:05:54Z</time>
      </trkpt>
      <trkpt lat="42.93978" lon="0.16211">
        <ele>1819.432373</ele>
        <time>2010-03-06T10:06:39Z</time>
      </trkpt>
      <trkpt lat="42.93978" lon="0.16211">
        <ele>1816.067627</ele>
        <time>2010-03-06T10:06:40Z</time>
      </trkpt>
      <trkpt lat="42.9409" lon="0.16235">
        <ele>1851.1557617</ele>
        <time>2010-03-06T10:14:17Z</time>
      </trkpt>
      <trkpt lat="42.94186" lon="0.16213">
        <ele>1867.0175781</ele>
        <time>2010-03-06T10:16:37Z</time>
      </trkpt>
      <trkpt lat="42.94193" lon="0.16213">
        <ele>1870.8630371</ele>
        <time>2010-03-06T10:16:49Z</time>
      </trkpt>
      <trkpt lat="42.94202" lon="0.16214">
        <ele>1873.2663574</ele>
        <time>2010-03-06T10:17:06Z</time>
      </trkpt>
      <trkpt lat="42.94262" lon="0.16257">
        <ele>1903.0671387</ele>
        <time>2010-03-06T10:20:14Z</time>
      </trkpt>
      <trkpt lat="42.94295" lon="0.16246">
        <ele>1907.3930664</ele>
        <time>2010-03-06T10:21:06Z</time>
      </trkpt>
      <trkpt lat="42.94329" lon="0.16247">
        <ele>1903.0671387</ele>
        <time>2010-03-06T10:21:49Z</time>
      </trkpt>
      <trkpt lat="42.9433" lon="0.16247">
        <ele>1907.3930664</ele>
        <time>2010-03-06T10:21:50Z</time>
      </trkpt>
      <trkpt lat="42.94331" lon="0.16247">
        <ele>1906.9123535</ele>
        <time>2010-03-06T10:21:51Z</time>
      </trkpt>
      <trkpt lat="42.94337" lon="0.16246">
        <ele>1905.470459</ele>
        <time>2010-03-06T10:21:58Z</time>
      </trkpt>
      <trkpt lat="42.94364" lon="0.1625">
        <ele>1905.470459</ele>
        <time>2010-03-06T10:22:31Z</time>
      </trkpt>
      <trkpt lat="42.94378" lon="0.16251">
        <ele>1904.0285645</ele>
        <time>2010-03-06T10:23:03Z</time>
      </trkpt>
      <trkpt lat="42.94382" lon="0.16238">
        <ele>1904.0285645</ele>
        <time>2010-03-06T10:23:31Z</time>
      </trkpt>
      <trkpt lat="42.94387" lon="0.1621">
        <ele>1906.9123535</ele>
        <time>2010-03-06T10:24:49Z</time>
      </trkpt>
      <trkpt lat="42.94398" lon="0.16166">
        <ele>1909.7961426</ele>
        <time>2010-03-06T10:25:39Z</time>
      </trkpt>
      <trkpt lat="42.94426" lon="0.16133">
        <ele>1918.4482422</ele>
        <time>2010-03-06T10:26:37Z</time>
      </trkpt>
      <trkpt lat="42.94464" lon="0.16119">
        <ele>1927.5805664</ele>
        <time>2010-03-06T10:27:58Z</time>
      </trkpt>
      <trkpt lat="42.94468" lon="0.16117">
        <ele>1930.9453125</ele>
        <time>2010-03-06T10:28:10Z</time>
      </trkpt>
      <trkpt lat="42.94535" lon="0.161">
        <ele>1953.0556641</ele>
        <time>2010-03-06T10:31:02Z</time>
      </trkpt>
      <trkpt lat="42.9458" lon="0.16086">
        <ele>1971.3205566</ele>
        <time>2010-03-06T10:33:15Z</time>
      </trkpt>
      <trkpt lat="42.94584" lon="0.16085">
        <ele>1973.2434082</ele>
        <time>2010-03-06T10:33:32Z</time>
      </trkpt>
      <trkpt lat="42.9459" lon="0.16089">
        <ele>1976.1271973</ele>
        <time>2010-03-06T10:33:50Z</time>
      </trkpt>
      <trkpt lat="42.94595" lon="0.16097">
        <ele>1977.5690918</ele>
        <time>2010-03-06T10:34:10Z</time>
      </trkpt>
      <trkpt lat="42.94628" lon="0.16142">
        <ele>1994.3920898</ele>
        <time>2010-03-06T10:35:55Z</time>
      </trkpt>
      <trkpt lat="42.94666" lon="0.16126">
        <ele>2007.3701172</ele>
        <time>2010-03-06T10:41:36Z</time>
      </trkpt>
      <trkpt lat="42.94712" lon="0.16095">
        <ele>2024.1931152</ele>
        <time>2010-03-06T10:43:47Z</time>
      </trkpt>
      <trkpt lat="42.94712" lon="0.16094">
        <ele>2024.1931152</ele>
        <time>2010-03-06T10:43:48Z</time>
      </trkpt>
      <trkpt lat="42.94715" lon="0.16092">
        <ele>2023.2319336</ele>
        <time>2010-03-06T10:44:07Z</time>
      </trkpt>
      <trkpt lat="42.94722" lon="0.16087">
        <ele>2024.6738281</ele>
        <time>2010-03-06T10:44:20Z</time>
      </trkpt>
      <trkpt lat="42.94734" lon="0.16079">
        <ele>2026.1157227</ele>
        <time>2010-03-06T10:44:39Z</time>
      </trkpt>
      <trkpt lat="42.94761" lon="0.16042">
        <ele>2027.5576172</ele>
        <time>2010-03-06T10:46:13Z</time>
      </trkpt>
      <trkpt lat="42.94813" lon="0.15994">
        <ele>2032.364502</ele>
        <time>2010-03-06T10:47:31Z</time>
      </trkpt>
      <trkpt lat="42.94818" lon="0.15991">
        <ele>2033.8063965</ele>
        <time>2010-03-06T10:47:39Z</time>
      </trkpt>
      <trkpt lat="42.94848" lon="0.15954">
        <ele>2037.6516113</ele>
        <time>2010-03-06T10:48:44Z</time>
      </trkpt>
      <trkpt lat="42.94858" lon="0.15945">
        <ele>2039.0935059</ele>
        <time>2010-03-06T10:49:05Z</time>
      </trkpt>
      <trkpt lat="42.94865" lon="0.1594">
        <ele>2041.4968262</ele>
        <time>2010-03-06T10:49:25Z</time>
      </trkpt>
      <trkpt lat="42.94881" lon="0.15933">
        <ele>2044.3808594</ele>
        <time>2010-03-06T10:50:04Z</time>
      </trkpt>
      <trkpt lat="42.94886" lon="0.15931">
        <ele>2045.3422852</ele>
        <time>2010-03-06T10:50:20Z</time>
      </trkpt>
      <trkpt lat="42.94887" lon="0.15932">
        <ele>2045.3422852</ele>
        <time>2010-03-06T10:50:45Z</time>
      </trkpt>
      <trkpt lat="42.94904" lon="0.15948">
        <ele>2053.9941406</ele>
        <time>2010-03-06T10:51:43Z</time>
      </trkpt>
      <trkpt lat="42.94908" lon="0.15954">
        <ele>2056.3972168</ele>
        <time>2010-03-06T10:51:59Z</time>
      </trkpt>
      <trkpt lat="42.94915" lon="0.1596">
        <ele>2058.8005371</ele>
        <time>2010-03-06T10:52:18Z</time>
      </trkpt>
      <trkpt lat="42.94917" lon="0.15961">
        <ele>2060.2426758</ele>
        <time>2010-03-06T10:52:25Z</time>
      </trkpt>
      <trkpt lat="42.94923" lon="0.15966">
        <ele>2063.6071777</ele>
        <time>2010-03-06T10:52:43Z</time>
      </trkpt>
      <trkpt lat="42.94926" lon="0.15971">
        <ele>2065.5300293</ele>
        <time>2010-03-06T10:53:02Z</time>
      </trkpt>
      <trkpt lat="42.94975" lon="0.16021">
        <ele>2083.314209</ele>
        <time>2010-03-06T10:55:43Z</time>
      </trkpt>
      <trkpt lat="42.94982" lon="0.16025">
        <ele>2085.2368164</ele>
        <time>2010-03-06T10:56:04Z</time>
      </trkpt>
      <trkpt lat="42.94984" lon="0.16027">
        <ele>2087.1594238</ele>
        <time>2010-03-06T10:56:23Z</time>
      </trkpt>
      <trkpt lat="42.94989" lon="0.16029">
        <ele>2088.6015625</ele>
        <time>2010-03-06T10:56:42Z</time>
      </trkpt>
      <trkpt lat="42.95016" lon="0.16035">
        <ele>2098.6953125</ele>
        <time>2010-03-06T10:57:52Z</time>
      </trkpt>
      <trkpt lat="42.95044" lon="0.16058">
        <ele>2108.7893066</ele>
        <time>2010-03-06T11:02:25Z</time>
      </trkpt>
      <trkpt lat="42.95055" lon="0.16062">
        <ele>2110.7119141</ele>
        <time>2010-03-06T11:02:44Z</time>
      </trkpt>
      <trkpt lat="42.95063" lon="0.16064">
        <ele>2114.076416</ele>
        <time>2010-03-06T11:03:01Z</time>
      </trkpt>
      <trkpt lat="42.9507" lon="0.16065">
        <ele>2115.5185547</ele>
        <time>2010-03-06T11:03:18Z</time>
      </trkpt>
      <trkpt lat="42.95099" lon="0.16071">
        <ele>2126.0930176</ele>
        <time>2010-03-06T11:04:59Z</time>
      </trkpt>
      <trkpt lat="42.951" lon="0.16066">
        <ele>2129.4575195</ele>
        <time>2010-03-06T11:05:13Z</time>
      </trkpt>
      <trkpt lat="42.95172" lon="0.16082">
        <ele>2160.2197266</ele>
        <time>2010-03-06T11:11:07Z</time>
      </trkpt>
      <trkpt lat="42.9519" lon="0.16095">
        <ele>2168.3908691</ele>
        <time>2010-03-06T11:12:29Z</time>
      </trkpt>
      <trkpt lat="42.95202" lon="0.16111">
        <ele>2178.0041504</ele>
        <time>2010-03-06T11:13:44Z</time>
      </trkpt>
      <trkpt lat="42.95276" lon="0.16155">
        <ele>2214.0534668</ele>
        <time>2010-03-06T11:18:45Z</time>
      </trkpt>
      <trkpt lat="42.95284" lon="0.1616">
        <ele>2216.4567871</ele>
        <time>2010-03-06T11:19:04Z</time>
      </trkpt>
      <trkpt lat="42.95291" lon="0.16172">
        <ele>2219.3408203</ele>
        <time>2010-03-06T11:19:39Z</time>
      </trkpt>
      <trkpt lat="42.9529" lon="0.1619">
        <ele>2222.7055664</ele>
        <time>2010-03-06T11:20:51Z</time>
      </trkpt>
      <trkpt lat="42.95278" lon="0.16278">
        <ele>2237.605957</ele>
        <time>2010-03-06T11:22:30Z</time>
      </trkpt>
      <trkpt lat="42.95292" lon="0.16309">
        <ele>2243.8544922</ele>
        <time>2010-03-06T11:24:03Z</time>
      </trkpt>
      <trkpt lat="42.95279" lon="0.1628">
        <ele>2231.8378906</ele>
        <time>2010-03-06T12:31:46Z</time>
      </trkpt>
      <trkpt lat="42.95279" lon="0.16256">
        <ele>2227.9926758</ele>
        <time>2010-03-06T12:32:27Z</time>
      </trkpt>
      <trkpt lat="42.95284" lon="0.16212">
        <ele>2220.782959</ele>
        <time>2010-03-06T12:33:36Z</time>
      </trkpt>
      <trkpt lat="42.95284" lon="0.1621">
        <ele>2220.3022461</ele>
        <time>2010-03-06T12:33:42Z</time>
      </trkpt>
      <trkpt lat="42.9529" lon="0.16185">
        <ele>2218.3793945</ele>
        <time>2010-03-06T12:34:01Z</time>
      </trkpt>
      <trkpt lat="42.95289" lon="0.1617">
        <ele>2215.4956055</ele>
        <time>2010-03-06T12:34:14Z</time>
      </trkpt>
      <trkpt lat="42.95279" lon="0.16155">
        <ele>2209.7275391</ele>
        <time>2010-03-06T12:34:40Z</time>
      </trkpt>
      <trkpt lat="42.95274" lon="0.16152">
        <ele>2206.3630371</ele>
        <time>2010-03-06T12:34:48Z</time>
      </trkpt>
      <trkpt lat="42.95225" lon="0.16124">
        <ele>2186.175293</ele>
        <time>2010-03-06T12:36:04Z</time>
      </trkpt>
      <trkpt lat="42.95196" lon="0.16102">
        <ele>2169.3522949</ele>
        <time>2010-03-06T12:36:59Z</time>
      </trkpt>
      <trkpt lat="42.95193" lon="0.16101">
        <ele>2167.9101563</ele>
        <time>2010-03-06T12:37:17Z</time>
      </trkpt>
      <trkpt lat="42.95161" lon="0.16081">
        <ele>2150.1259766</ele>
        <time>2010-03-06T12:38:20Z</time>
      </trkpt>
      <trkpt lat="42.95157" lon="0.16079">
        <ele>2148.6838379</ele>
        <time>2010-03-06T12:38:34Z</time>
      </trkpt>
      <trkpt lat="42.95156" lon="0.16078">
        <ele>2147.7226563</ele>
        <time>2010-03-06T12:38:38Z</time>
      </trkpt>
      <trkpt lat="42.95147" lon="0.16076">
        <ele>2143.8774414</ele>
        <time>2010-03-06T12:38:52Z</time>
      </trkpt>
      <trkpt lat="42.95139" lon="0.16075">
        <ele>2140.5126953</ele>
        <time>2010-03-06T12:39:07Z</time>
      </trkpt>
      <trkpt lat="42.95061" lon="0.16062">
        <ele>2109.7504883</ele>
        <time>2010-03-06T12:41:04Z</time>
      </trkpt>
      <trkpt lat="42.95055" lon="0.1606">
        <ele>2106.8664551</ele>
        <time>2010-03-06T12:41:12Z</time>
      </trkpt>
      <trkpt lat="42.95053" lon="0.16058">
        <ele>2106.3857422</ele>
        <time>2010-03-06T12:41:39Z</time>
      </trkpt>
      <trkpt lat="42.95044" lon="0.1606">
        <ele>2104.4631348</ele>
        <time>2010-03-06T12:41:53Z</time>
      </trkpt>
      <trkpt lat="42.95033" lon="0.16062">
        <ele>2101.5793457</ele>
        <time>2010-03-06T12:42:09Z</time>
      </trkpt>
      <trkpt lat="42.95009" lon="0.16048">
        <ele>2093.4082031</ele>
        <time>2010-03-06T12:42:54Z</time>
      </trkpt>
      <trkpt lat="42.95008" lon="0.16047">
        <ele>2092.9274902</ele>
        <time>2010-03-06T12:42:56Z</time>
      </trkpt>
      <trkpt lat="42.94998" lon="0.16035">
        <ele>2089.5627441</ele>
        <time>2010-03-06T12:43:09Z</time>
      </trkpt>
      <trkpt lat="42.94992" lon="0.16028">
        <ele>2085.7175293</ele>
        <time>2010-03-06T12:43:18Z</time>
      </trkpt>
      <trkpt lat="42.94986" lon="0.16021">
        <ele>2082.3530273</ele>
        <time>2010-03-06T12:43:28Z</time>
      </trkpt>
      <trkpt lat="42.94939" lon="0.15974">
        <ele>2066.010498</ele>
        <time>2010-03-06T12:44:54Z</time>
      </trkpt>
      <trkpt lat="42.94928" lon="0.15968">
        <ele>2063.126709</ele>
        <time>2010-03-06T12:45:11Z</time>
      </trkpt>
      <trkpt lat="42.9492" lon="0.1596">
        <ele>2059.28125</ele>
        <time>2010-03-06T12:45:25Z</time>
      </trkpt>
      <trkpt lat="42.9492" lon="0.15959">
        <ele>2059.28125</ele>
        <time>2010-03-06T12:45:26Z</time>
      </trkpt>
      <trkpt lat="42.94906" lon="0.1595">
        <ele>2054.9553223</ele>
        <time>2010-03-06T12:45:58Z</time>
      </trkpt>
      <trkpt lat="42.94898" lon="0.15942">
        <ele>2051.5908203</ele>
        <time>2010-03-06T12:46:12Z</time>
      </trkpt>
      <trkpt lat="42.94894" lon="0.15937">
        <ele>2048.2260742</ele>
        <time>2010-03-06T12:46:20Z</time>
      </trkpt>
      <trkpt lat="42.94894" lon="0.15936">
        <ele>2047.7456055</ele>
        <time>2010-03-06T12:46:21Z</time>
      </trkpt>
      <trkpt lat="42.94889" lon="0.15923">
        <ele>2047.2648926</ele>
        <time>2010-03-06T12:50:08Z</time>
      </trkpt>
      <trkpt lat="42.94876" lon="0.1592">
        <ele>2044.8615723</ele>
        <time>2010-03-06T12:50:25Z</time>
      </trkpt>
      <trkpt lat="42.94838" lon="0.1592">
        <ele>2034.2871094</ele>
        <time>2010-03-06T12:51:30Z</time>
      </trkpt>
      <trkpt lat="42.94757" lon="0.15898">
        <ele>2027.0771484</ele>
        <time>2010-03-06T12:53:04Z</time>
      </trkpt>
      <trkpt lat="42.94742" lon="0.1588">
        <ele>2031.4030762</ele>
        <time>2010-03-06T13:08:29Z</time>
      </trkpt>
      <trkpt lat="42.94733" lon="0.1589">
        <ele>2031.4030762</ele>
        <time>2010-03-06T13:08:42Z</time>
      </trkpt>
      <trkpt lat="42.94727" lon="0.15908">
        <ele>2030.4418945</ele>
        <time>2010-03-06T13:08:58Z</time>
      </trkpt>
      <trkpt lat="42.94726" lon="0.15915">
        <ele>2029.9611816</ele>
        <time>2010-03-06T13:09:04Z</time>
      </trkpt>
      <trkpt lat="42.94726" lon="0.15927">
        <ele>2028.9997559</ele>
        <time>2010-03-06T13:09:15Z</time>
      </trkpt>
      <trkpt lat="42.94732" lon="0.15945">
        <ele>2029.4804688</ele>
        <time>2010-03-06T13:09:28Z</time>
      </trkpt>
      <trkpt lat="42.94737" lon="0.15964">
        <ele>2027.5576172</ele>
        <time>2010-03-06T13:09:43Z</time>
      </trkpt>
      <trkpt lat="42.94743" lon="0.15989">
        <ele>2026.5964355</ele>
        <time>2010-03-06T13:10:02Z</time>
      </trkpt>
      <trkpt lat="42.94744" lon="0.16012">
        <ele>2028.5192871</ele>
        <time>2010-03-06T13:10:20Z</time>
      </trkpt>
      <trkpt lat="42.94741" lon="0.16057">
        <ele>2031.4030762</ele>
        <time>2010-03-06T13:11:11Z</time>
      </trkpt>
      <trkpt lat="42.94737" lon="0.16075">
        <ele>2028.0385742</ele>
        <time>2010-03-06T13:11:28Z</time>
      </trkpt>
      <trkpt lat="42.94725" lon="0.16086">
        <ele>2027.0771484</ele>
        <time>2010-03-06T13:11:45Z</time>
      </trkpt>
      <trkpt lat="42.94719" lon="0.1609">
        <ele>2026.1157227</ele>
        <time>2010-03-06T13:12:05Z</time>
      </trkpt>
      <trkpt lat="42.94702" lon="0.16101">
        <ele>2022.2705078</ele>
        <time>2010-03-06T13:12:30Z</time>
      </trkpt>
      <trkpt lat="42.94699" lon="0.16103">
        <ele>2020.8286133</ele>
        <time>2010-03-06T13:12:34Z</time>
      </trkpt>
      <trkpt lat="42.94665" lon="0.16115">
        <ele>2010.7346191</ele>
        <time>2010-03-06T13:13:24Z</time>
      </trkpt>
      <trkpt lat="42.9465" lon="0.16113">
        <ele>2003.5249023</ele>
        <time>2010-03-06T13:13:45Z</time>
      </trkpt>
      <trkpt lat="42.94643" lon="0.1611">
        <ele>2000.1604004</ele>
        <time>2010-03-06T13:13:56Z</time>
      </trkpt>
      <trkpt lat="42.94618" lon="0.16121">
        <ele>1990.0664063</ele>
        <time>2010-03-06T13:14:27Z</time>
      </trkpt>
      <trkpt lat="42.94585" lon="0.16083">
        <ele>1973.2434082</ele>
        <time>2010-03-06T13:15:26Z</time>
      </trkpt>
      <trkpt lat="42.94535" lon="0.16094">
        <ele>1953.0556641</ele>
        <time>2010-03-06T13:16:40Z</time>
      </trkpt>
      <trkpt lat="42.94531" lon="0.16096">
        <ele>1951.1330566</ele>
        <time>2010-03-06T13:16:45Z</time>
      </trkpt>
      <trkpt lat="42.94529" lon="0.16096">
        <ele>1951.1330566</ele>
        <time>2010-03-06T13:17:11Z</time>
      </trkpt>
      <trkpt lat="42.94464" lon="0.16107">
        <ele>1929.0224609</ele>
        <time>2010-03-06T13:18:17Z</time>
      </trkpt>
      <trkpt lat="42.94462" lon="0.16107">
        <ele>1928.5419922</ele>
        <time>2010-03-06T13:18:19Z</time>
      </trkpt>
      <trkpt lat="42.9443" lon="0.16117">
        <ele>1919.8901367</ele>
        <time>2010-03-06T13:18:45Z</time>
      </trkpt>
      <trkpt lat="42.94422" lon="0.16118">
        <ele>1917.9675293</ele>
        <time>2010-03-06T13:18:51Z</time>
      </trkpt>
      <trkpt lat="42.94398" lon="0.16144">
        <ele>1911.7189941</ele>
        <time>2010-03-06T13:19:27Z</time>
      </trkpt>
      <trkpt lat="42.94391" lon="0.16177">
        <ele>1907.3930664</ele>
        <time>2010-03-06T13:19:59Z</time>
      </trkpt>
      <trkpt lat="42.94382" lon="0.16225">
        <ele>1904.5090332</ele>
        <time>2010-03-06T13:20:27Z</time>
      </trkpt>
      <trkpt lat="42.94378" lon="0.16236">
        <ele>1903.0671387</ele>
        <time>2010-03-06T13:20:40Z</time>
      </trkpt>
      <trkpt lat="42.94367" lon="0.16228">
        <ele>1903.5478516</ele>
        <time>2010-03-06T13:20:53Z</time>
      </trkpt>
      <trkpt lat="42.94363" lon="0.16239">
        <ele>1903.0671387</ele>
        <time>2010-03-06T13:21:14Z</time>
      </trkpt>
      <trkpt lat="42.94331" lon="0.16236">
        <ele>1903.5478516</ele>
        <time>2010-03-06T13:21:41Z</time>
      </trkpt>
      <trkpt lat="42.9432" lon="0.16239">
        <ele>1906.9123535</ele>
        <time>2010-03-06T13:21:54Z</time>
      </trkpt>
      <trkpt lat="42.94302" lon="0.16244">
        <ele>1907.3930664</ele>
        <time>2010-03-06T13:22:10Z</time>
      </trkpt>
      <trkpt lat="42.94279" lon="0.1624">
        <ele>1905.470459</ele>
        <time>2010-03-06T13:22:31Z</time>
      </trkpt>
      <trkpt lat="42.94267" lon="0.16243">
        <ele>1903.0671387</ele>
        <time>2010-03-06T13:22:46Z</time>
      </trkpt>
      <trkpt lat="42.9421" lon="0.16221">
        <ele>1878.5534668</ele>
        <time>2010-03-06T13:24:17Z</time>
      </trkpt>
      <trkpt lat="42.94195" lon="0.16214">
        <ele>1872.7856445</ele>
        <time>2010-03-06T13:24:34Z</time>
      </trkpt>
      <trkpt lat="42.94184" lon="0.16212">
        <ele>1869.4211426</ele>
        <time>2010-03-06T13:24:46Z</time>
      </trkpt>
      <trkpt lat="42.9413" lon="0.16205">
        <ele>1859.3271484</ele>
        <time>2010-03-06T13:25:57Z</time>
      </trkpt>
      <trkpt lat="42.9402" lon="0.16184">
        <ele>1834.8134766</ele>
        <time>2010-03-06T13:28:23Z</time>
      </trkpt>
      <trkpt lat="42.94013" lon="0.16183">
        <ele>1831.4487305</ele>
        <time>2010-03-06T13:28:33Z</time>
      </trkpt>
      <trkpt lat="42.94012" lon="0.16183">
        <ele>1831.4487305</ele>
        <time>2010-03-06T13:28:34Z</time>
      </trkpt>
      <trkpt lat="42.93974" lon="0.16181">
        <ele>1815.1064453</ele>
        <time>2010-03-06T13:29:26Z</time>
      </trkpt>
      <trkpt lat="42.93947" lon="0.1619">
        <ele>1811.2612305</ele>
        <time>2010-03-06T13:30:00Z</time>
      </trkpt>
      <trkpt lat="42.93936" lon="0.162">
        <ele>1808.3771973</ele>
        <time>2010-03-06T13:30:18Z</time>
      </trkpt>
      <trkpt lat="42.93927" lon="0.16206">
        <ele>1805.973877</ele>
        <time>2010-03-06T13:30:33Z</time>
      </trkpt>
      <trkpt lat="42.93894" lon="0.16212">
        <ele>1798.763916</ele>
        <time>2010-03-06T13:31:11Z</time>
      </trkpt>
      <trkpt lat="42.93817" lon="0.16248">
        <ele>1779.0568848</ele>
        <time>2010-03-06T13:32:34Z</time>
      </trkpt>
      <trkpt lat="42.93816" lon="0.16249">
        <ele>1779.5375977</ele>
        <time>2010-03-06T13:32:35Z</time>
      </trkpt>
      <trkpt lat="42.93718" lon="0.16301">
        <ele>1755.9851074</ele>
        <time>2010-03-06T13:34:28Z</time>
      </trkpt>
      <trkpt lat="42.93709" lon="0.16306">
        <ele>1753.1013184</ele>
        <time>2010-03-06T13:34:37Z</time>
      </trkpt>
      <trkpt lat="42.93685" lon="0.16313">
        <ele>1744.9301758</ele>
        <time>2010-03-06T13:35:10Z</time>
      </trkpt>
      <trkpt lat="42.9365" lon="0.16333">
        <ele>1745.8916016</ele>
        <time>2010-03-06T14:03:48Z</time>
      </trkpt>
      <trkpt lat="42.93623" lon="0.16362">
        <ele>1746.3723145</ele>
        <time>2010-03-06T14:04:22Z</time>
      </trkpt>
      <trkpt lat="42.93576" lon="0.16418">
        <ele>1735.7976074</ele>
        <time>2010-03-06T14:05:16Z</time>
      </trkpt>
      <trkpt lat="42.93567" lon="0.1644">
        <ele>1730.9912109</ele>
        <time>2010-03-06T14:05:39Z</time>
      </trkpt>
      <trkpt lat="42.93539" lon="0.16484">
        <ele>1725.7038574</ele>
        <time>2010-03-06T14:06:40Z</time>
      </trkpt>
      <trkpt lat="42.9353" lon="0.16497">
        <ele>1722.3391113</ele>
        <time>2010-03-06T14:06:51Z</time>
      </trkpt>
      <trkpt lat="42.93521" lon="0.16507">
        <ele>1720.8972168</ele>
        <time>2010-03-06T14:07:05Z</time>
      </trkpt>
      <trkpt lat="42.93493" lon="0.16527">
        <ele>1716.0905762</ele>
        <time>2010-03-06T14:08:08Z</time>
      </trkpt>
      <trkpt lat="42.93467" lon="0.1654">
        <ele>1707.4387207</ele>
        <time>2010-03-06T14:08:47Z</time>
      </trkpt>
      <trkpt lat="42.93465" lon="0.16542">
        <ele>1705.5161133</ele>
        <time>2010-03-06T14:09:02Z</time>
      </trkpt>
      <trkpt lat="42.93422" lon="0.1662">
        <ele>1696.3837891</ele>
        <time>2010-03-06T14:10:14Z</time>
      </trkpt>
      <trkpt lat="42.93394" lon="0.1667">
        <ele>1689.6542969</ele>
        <time>2010-03-06T14:11:06Z</time>
      </trkpt>
      <trkpt lat="42.93378" lon="0.16706">
        <ele>1685.3283691</ele>
        <time>2010-03-06T14:11:50Z</time>
      </trkpt>
      <trkpt lat="42.93378" lon="0.16707">
        <ele>1684.8479004</ele>
        <time>2010-03-06T14:11:51Z</time>
      </trkpt>
      <trkpt lat="42.93352" lon="0.16765">
        <ele>1677.6379395</ele>
        <time>2010-03-06T14:12:44Z</time>
      </trkpt>
      <trkpt lat="42.93343" lon="0.16781">
        <ele>1675.234375</ele>
        <time>2010-03-06T14:13:00Z</time>
      </trkpt>
      <trkpt lat="42.93328" lon="0.16797">
        <ele>1672.8312988</ele>
        <time>2010-03-06T14:13:17Z</time>
      </trkpt>
      <trkpt lat="42.93312" lon="0.16821">
        <ele>1671.3891602</ele>
        <time>2010-03-06T14:13:35Z</time>
      </trkpt>
      <trkpt lat="42.9331" lon="0.16823">
        <ele>1670.9086914</ele>
        <time>2010-03-06T14:13:47Z</time>
      </trkpt>
      <trkpt lat="42.93303" lon="0.16844">
        <ele>1669.9472656</ele>
        <time>2010-03-06T14:14:04Z</time>
      </trkpt>
      <trkpt lat="42.93298" lon="0.16861">
        <ele>1668.5053711</ele>
        <time>2010-03-06T14:14:19Z</time>
      </trkpt>
      <trkpt lat="42.93282" lon="0.1695">
        <ele>1654.0856934</ele>
        <time>2010-03-06T14:15:37Z</time>
      </trkpt>
      <trkpt lat="42.9328" lon="0.16965">
        <ele>1651.682373</ele>
        <time>2010-03-06T14:15:50Z</time>
      </trkpt>
      <trkpt lat="42.9328" lon="0.16966">
        <ele>1651.2016602</ele>
        <time>2010-03-06T14:15:51Z</time>
      </trkpt>
      <trkpt lat="42.93278" lon="0.16987">
        <ele>1650.7209473</ele>
        <time>2010-03-06T14:16:05Z</time>
      </trkpt>
      <trkpt lat="42.93276" lon="0.1699">
        <ele>1649.7597656</ele>
        <time>2010-03-06T14:16:12Z</time>
      </trkpt>
      <trkpt lat="42.93279" lon="0.17033">
        <ele>1642.5498047</ele>
        <time>2010-03-06T14:16:46Z</time>
      </trkpt>
      <trkpt lat="42.93273" lon="0.17118">
        <ele>1631.9753418</ele>
        <time>2010-03-06T14:17:51Z</time>
      </trkpt>
      <trkpt lat="42.93273" lon="0.1712">
        <ele>1632.4560547</ele>
        <time>2010-03-06T14:17:52Z</time>
      </trkpt>
      <trkpt lat="42.93264" lon="0.17171">
        <ele>1628.130127</ele>
        <time>2010-03-06T14:18:25Z</time>
      </trkpt>
      <trkpt lat="42.93261" lon="0.17189">
        <ele>1626.2072754</ele>
        <time>2010-03-06T14:18:38Z</time>
      </trkpt>
      <trkpt lat="42.93258" lon="0.17212">
        <ele>1624.284668</ele>
        <time>2010-03-06T14:18:54Z</time>
      </trkpt>
      <trkpt lat="42.93227" lon="0.17344">
        <ele>1620.920166</ele>
        <time>2010-03-06T14:20:43Z</time>
      </trkpt>
      <trkpt lat="42.93225" lon="0.17347">
        <ele>1621.4006348</ele>
        <time>2010-03-06T14:20:46Z</time>
      </trkpt>
      <trkpt lat="42.93222" lon="0.17353">
        <ele>1620.920166</ele>
        <time>2010-03-06T14:20:51Z</time>
      </trkpt>
      <trkpt lat="42.93212" lon="0.17366">
        <ele>1619.4782715</ele>
        <time>2010-03-06T14:21:07Z</time>
      </trkpt>
      <trkpt lat="42.93213" lon="0.17381">
        <ele>1620.4394531</ele>
        <time>2010-03-06T14:21:21Z</time>
      </trkpt>
      <trkpt lat="42.93194" lon="0.17483">
        <ele>1614.6716309</ele>
        <time>2010-03-06T14:22:42Z</time>
      </trkpt>
      <trkpt lat="42.93184" lon="0.17502">
        <ele>1613.7102051</ele>
        <time>2010-03-06T14:23:09Z</time>
      </trkpt>
      <trkpt lat="42.93177" lon="0.17501">
        <ele>1613.2297363</ele>
        <time>2010-03-06T14:23:23Z</time>
      </trkpt>
      <trkpt lat="42.93179" lon="0.1751">
        <ele>1611.3068848</ele>
        <time>2010-03-06T14:23:38Z</time>
      </trkpt>
      <trkpt lat="42.93183" lon="0.17535">
        <ele>1611.3068848</ele>
        <time>2010-03-06T14:23:54Z</time>
      </trkpt>
      <trkpt lat="42.93177" lon="0.17537">
        <ele>1608.4228516</ele>
        <time>2010-03-06T14:24:06Z</time>
      </trkpt>
      <trkpt lat="42.93169" lon="0.17539">
        <ele>1609.3842773</ele>
        <time>2010-03-06T14:24:19Z</time>
      </trkpt>
      <trkpt lat="42.93168" lon="0.1754">
        <ele>1609.8647461</ele>
        <time>2010-03-06T14:24:21Z</time>
      </trkpt>
      <trkpt lat="42.93159" lon="0.17563">
        <ele>1608.9035645</ele>
        <time>2010-03-06T14:24:38Z</time>
      </trkpt>
      <trkpt lat="42.93135" lon="0.17639">
        <ele>1605.5390625</ele>
        <time>2010-03-06T14:25:35Z</time>
      </trkpt>
      <trkpt lat="42.93131" lon="0.1765">
        <ele>1605.5390625</ele>
        <time>2010-03-06T14:25:44Z</time>
      </trkpt>
      <trkpt lat="42.93121" lon="0.17666">
        <ele>1603.6164551</ele>
        <time>2010-03-06T14:25:58Z</time>
      </trkpt>
      <trkpt lat="42.93085" lon="0.17753">
        <ele>1599.7712402</ele>
        <time>2010-03-06T14:27:02Z</time>
      </trkpt>
      <trkpt lat="42.9308" lon="0.17772">
        <ele>1596.4067383</ele>
        <time>2010-03-06T14:27:16Z</time>
      </trkpt>
      <trkpt lat="42.93072" lon="0.17808">
        <ele>1593.041748</ele>
        <time>2010-03-06T14:27:47Z</time>
      </trkpt>
      <trkpt lat="42.93071" lon="0.17811">
        <ele>1592.0805664</ele>
        <time>2010-03-06T14:27:49Z</time>
      </trkpt>
      <trkpt lat="42.93065" lon="0.17831">
        <ele>1588.7160645</ele>
        <time>2010-03-06T14:28:05Z</time>
      </trkpt>
      <trkpt lat="42.93064" lon="0.1784">
        <ele>1587.7546387</ele>
        <time>2010-03-06T14:28:12Z</time>
      </trkpt>
      <trkpt lat="42.9305" lon="0.17876">
        <ele>1586.7932129</ele>
        <time>2010-03-06T14:28:41Z</time>
      </trkpt>
      <trkpt lat="42.93006" lon="0.17969">
        <ele>1581.9868164</ele>
        <time>2010-03-06T14:30:29Z</time>
      </trkpt>
      <trkpt lat="42.92995" lon="0.17995">
        <ele>1579.1025391</ele>
        <time>2010-03-06T14:30:48Z</time>
      </trkpt>
      <trkpt lat="42.92952" lon="0.18078">
        <ele>1573.8154297</ele>
        <time>2010-03-06T14:32:05Z</time>
      </trkpt>
      <trkpt lat="42.92949" lon="0.18084">
        <ele>1573.8154297</ele>
        <time>2010-03-06T14:32:10Z</time>
      </trkpt>
      <trkpt lat="42.92933" lon="0.18105">
        <ele>1573.3349609</ele>
        <time>2010-03-06T14:32:29Z</time>
      </trkpt>
      <trkpt lat="42.92911" lon="0.18129">
        <ele>1572.3735352</ele>
        <time>2010-03-06T14:33:00Z</time>
      </trkpt>
      <trkpt lat="42.92909" lon="0.18132">
        <ele>1571.8928223</ele>
        <time>2010-03-06T14:33:23Z</time>
      </trkpt>
      <trkpt lat="42.92875" lon="0.18171">
        <ele>1574.2961426</ele>
        <time>2010-03-06T14:34:07Z</time>
      </trkpt>
      <trkpt lat="42.92858" lon="0.18194">
        <ele>1573.3349609</ele>
        <time>2010-03-06T14:34:30Z</time>
      </trkpt>
      <trkpt lat="42.92852" lon="0.18207">
        <ele>1570.9316406</ele>
        <time>2010-03-06T14:34:51Z</time>
      </trkpt>
      <trkpt lat="42.92819" lon="0.18276">
        <ele>1563.7214355</ele>
        <time>2010-03-06T14:36:02Z</time>
      </trkpt>
      <trkpt lat="42.92809" lon="0.18301">
        <ele>1562.279541</ele>
        <time>2010-03-06T14:36:19Z</time>
      </trkpt>
      <trkpt lat="42.92802" lon="0.18335">
        <ele>1555.0698242</ele>
        <time>2010-03-06T14:36:46Z</time>
      </trkpt>
      <trkpt lat="42.9279" lon="0.18385">
        <ele>1551.2246094</ele>
        <time>2010-03-06T14:37:18Z</time>
      </trkpt>
      <trkpt lat="42.92785" lon="0.18399">
        <ele>1549.7827148</ele>
        <time>2010-03-06T14:37:29Z</time>
      </trkpt>
      <trkpt lat="42.9277" lon="0.18417">
        <ele>1547.3791504</ele>
        <time>2010-03-06T14:37:47Z</time>
      </trkpt>
      <trkpt lat="42.92748" lon="0.18443">
        <ele>1542.5727539</ele>
        <time>2010-03-06T14:38:14Z</time>
      </trkpt>
      <trkpt lat="42.92739" lon="0.18448">
        <ele>1539.2080078</ele>
        <time>2010-03-06T14:38:36Z</time>
      </trkpt>
      <trkpt lat="42.92708" lon="0.18469">
        <ele>1534.8823242</ele>
        <time>2010-03-06T14:39:03Z</time>
      </trkpt>
      <trkpt lat="42.92707" lon="0.1847">
        <ele>1535.362793</ele>
        <time>2010-03-06T14:39:20Z</time>
      </trkpt>
      <trkpt lat="42.927" lon="0.18475">
        <ele>1534.4016113</ele>
        <time>2010-03-06T14:39:35Z</time>
      </trkpt>
      <trkpt lat="42.92684" lon="0.18497">
        <ele>1530.5561523</ele>
        <time>2010-03-06T14:39:57Z</time>
      </trkpt>
      <trkpt lat="42.92674" lon="0.18512">
        <ele>1527.1916504</ele>
        <time>2010-03-06T14:40:15Z</time>
      </trkpt>
      <trkpt lat="42.92666" lon="0.1853">
        <ele>1523.8269043</ele>
        <time>2010-03-06T14:40:32Z</time>
      </trkpt>
      <trkpt lat="42.9263" lon="0.186">
        <ele>1513.2524414</ele>
        <time>2010-03-06T14:42:06Z</time>
      </trkpt>
      <trkpt lat="42.92623" lon="0.18622">
        <ele>1510.3684082</ele>
        <time>2010-03-06T14:42:19Z</time>
      </trkpt>
      <trkpt lat="42.92608" lon="0.1871">
        <ele>1495.4680176</ele>
        <time>2010-03-06T14:43:40Z</time>
      </trkpt>
      <trkpt lat="42.9259" lon="0.18839">
        <ele>1473.8383789</ele>
        <time>2010-03-06T14:45:36Z</time>
      </trkpt>
      <trkpt lat="42.9259" lon="0.18848">
        <ele>1471.9157715</ele>
        <time>2010-03-06T14:45:54Z</time>
      </trkpt>
      <trkpt lat="42.9259" lon="0.18848">
        <ele>1471.9157715</ele>
        <time>2010-03-06T14:45:55Z</time>
      </trkpt>
      <trkpt lat="42.92601" lon="0.18869">
        <ele>1469.0319824</ele>
        <time>2010-03-06T14:46:09Z</time>
      </trkpt>
      <trkpt lat="42.92612" lon="0.1894">
        <ele>1460.3798828</ele>
        <time>2010-03-06T14:46:57Z</time>
      </trkpt>
      <trkpt lat="42.92608" lon="0.18953">
        <ele>1459.8991699</ele>
        <time>2010-03-06T14:47:15Z</time>
      </trkpt>
      <trkpt lat="42.92589" lon="0.19056">
        <ele>1442.5957031</ele>
        <time>2010-03-06T14:48:37Z</time>
      </trkpt>
      <trkpt lat="42.92577" lon="0.19096">
        <ele>1438.2697754</ele>
        <time>2010-03-06T14:49:03Z</time>
      </trkpt>
      <trkpt lat="42.92554" lon="0.19165">
        <ele>1432.501709</ele>
        <time>2010-03-06T14:49:52Z</time>
      </trkpt>
      <trkpt lat="42.92542" lon="0.19237">
        <ele>1425.7724609</ele>
        <time>2010-03-06T14:50:40Z</time>
      </trkpt>
      <trkpt lat="42.92537" lon="0.19273">
        <ele>1422.407959</ele>
        <time>2010-03-06T14:51:11Z</time>
      </trkpt>
      <trkpt lat="42.92544" lon="0.19296">
        <ele>1419.5239258</ele>
        <time>2010-03-06T14:51:27Z</time>
      </trkpt>
      <trkpt lat="42.92553" lon="0.19323">
        <ele>1413.7558594</ele>
        <time>2010-03-06T14:52:13Z</time>
      </trkpt>
      <trkpt lat="42.92553" lon="0.19323">
        <ele>1413.2753906</ele>
        <time>2010-03-06T14:52:14Z</time>
      </trkpt>
      <trkpt lat="42.92559" lon="0.19334">
        <ele>1409.9106445</ele>
        <time>2010-03-06T14:52:26Z</time>
      </trkpt>
      <trkpt lat="42.9257" lon="0.19337">
        <ele>1407.9882813</ele>
        <time>2010-03-06T14:52:41Z</time>
      </trkpt>
      <trkpt lat="42.92579" lon="0.19341">
        <ele>1406.0654297</ele>
        <time>2010-03-06T14:52:53Z</time>
      </trkpt>
      <trkpt lat="42.92597" lon="0.19348">
        <ele>1400.7780762</ele>
        <time>2010-03-06T14:53:15Z</time>
      </trkpt>
      <trkpt lat="42.9261" lon="0.19354">
        <ele>1397.8942871</ele>
        <time>2010-03-06T14:53:26Z</time>
      </trkpt>
      <trkpt lat="42.92617" lon="0.19366">
        <ele>1395.4909668</ele>
        <time>2010-03-06T14:53:37Z</time>
      </trkpt>
      <trkpt lat="42.9262" lon="0.19386">
        <ele>1393.5683594</ele>
        <time>2010-03-06T14:53:53Z</time>
      </trkpt>
      <trkpt lat="42.92632" lon="0.19488">
        <ele>1377.2260742</ele>
        <time>2010-03-06T14:55:16Z</time>
      </trkpt>
      <trkpt lat="42.92636" lon="0.1951">
        <ele>1376.2646484</ele>
        <time>2010-03-06T14:55:30Z</time>
      </trkpt>
      <trkpt lat="42.92635" lon="0.19524">
        <ele>1372.4194336</ele>
        <time>2010-03-06T14:55:43Z</time>
      </trkpt>
      <trkpt lat="42.92628" lon="0.19579">
        <ele>1359.9221191</ele>
        <time>2010-03-06T14:56:40Z</time>
      </trkpt>
      <trkpt lat="42.9267" lon="0.19621">
        <ele>1342.6186523</ele>
        <time>2010-03-06T14:58:04Z</time>
      </trkpt>
      <trkpt lat="42.92685" lon="0.19632">
        <ele>1337.3310547</ele>
        <time>2010-03-06T14:58:36Z</time>
      </trkpt>
      <trkpt lat="42.92689" lon="0.19721">
        <ele>1313.2983398</ele>
        <time>2010-03-06T14:59:52Z</time>
      </trkpt>
      <trkpt lat="42.92705" lon="0.19802">
        <ele>1294.5524902</ele>
        <time>2010-03-06T15:01:05Z</time>
      </trkpt>
      <trkpt lat="42.92701" lon="0.19846">
        <ele>1280.6135254</ele>
        <time>2010-03-06T15:09:34Z</time>
      </trkpt>
    </trkseg>
  </trk>
</gpx>